Churchton, Maryland
Current Conditions -  °F | °C
As of 5:54 PM on Tuesday 21 Oct 2014 (Local Time) from KNAK Reporting Station
Overcast Overcast  
Wind Chill: 64°   Ceiling: 11000
Heat Index: 64°   Visibility: 10mi
Dew Point: 51°   Wind: 3mph
Humidity: 63%   Direction: 110°ESE
Pressure: 29.81"   Gusts: NA
Location:  38.8°N, 76.54°W
Report Text: KNAK 212154Z AUTO 11003KT 10SM OVC110 18/11 A2981 RMK AO2 SLP097 T01780106
Loading
Personal Weather Stations






























Interactive Weather Map
Tropical Storm Tracking
New forecast layout! Learn more

10-Day Weather Forecast

Advertisements
Track Severe Weather on mobile